< < Back
Terminal Aerodrome Forecast


Current Version              Previous Versions:   1  2  3  4  5  6  7  8  9  

Terminal Aerodrome Forecast

871
FTUS42 KMLB 301720
TAFDAB
TAF
KDAB 301720Z 3018/3118 08010KT P6SM SCT030 SCT040
     FM310100 09005KT P6SM SCT035 SCT060 BKN250
     FM310600 00000KT P6SM VCSH SCT030
     FM311400 10006KT P6SM VCSH FEW015 SCT025 BKN080=



Latest METAR

011
SAUS80 KWBC 301800 CCA
MTRDAB
METAR KDAB 301753Z 07012G19KT 10SM SCT028TCU SCT040 SCT250 29/21 A3009
RMK AO2 SLP189 TCU NE-E CB DSNT E W-NW T02890211 10300 20250
58009


USA.gov is the U.S. government's official web portal to all federal, state and local government web resources and services.